Time;durP1;ratioP1;P1;durP2;ratioP2;P2;SDS_P1;SDS_P2;PMS_P1;PMS_P2;Temp;Humidity;BMP_temperature;BMP_pressure;BME280_temperature;BME280_humidity;BME280_pressure;Samples;Min_cycle;Max_cycle;Signal;HPM_P1;HPM_P2
2023/07/28 00:02:23;;;;;;;50.50;17.67;;;;;;;17.28;100.00;100248.25;5005429;28;20414;-79
2023/07/28 00:04:51;;;;;;;29.42;15.77;;;;;;;17.27;100.00;100246.50;4985183;28;20411;-79
2023/07/28 00:07:20;;;;;;;33.10;16.20;;;;;;;17.28;100.00;100248.25;4988986;28;20049;-79
2023/07/28 00:09:47;;;;;;;34.72;17.73;;;;;;;17.28;100.00;100250.94;4983353;28;20046;-78
2023/07/28 00:12:15;;;;;;;35.30;17.33;;;;;;;17.28;100.00;100254.44;4989511;28;20058;-78
2023/07/28 00:14:45;;;;;;;38.60;17.60;;;;;;;17.28;100.00;100256.25;4980010;28;20053;-78
2023/07/28 00:17:12;;;;;;;37.67;17.75;;;;;;;17.28;100.00;100259.78;4998527;28;20065;-78
2023/07/28 00:19:40;;;;;;;37.97;16.85;;;;;;;17.28;100.00;100249.13;4968511;28;20049;-79
2023/07/28 00:22:07;;;;;;;38.00;17.63;;;;;;;17.29;100.00;100252.66;4990191;28;20042;-79
2023/07/28 00:24:35;;;;;;;40.47;16.85;;;;;;;17.28;100.00;100249.13;5001319;28;20093;-79
2023/07/28 00:27:02;;;;;;;38.58;17.73;;;;;;;17.29;100.00;100255.31;4988453;28;20050;-79
2023/07/28 00:29:30;;;;;;;43.00;18.48;;;;;;;17.29;100.00;100256.16;4992189;28;20042;-78
2023/07/28 00:31:58;;;;;;;40.53;18.02;;;;;;;17.28;100.00;100254.44;5000349;28;20377;-79
2023/07/28 00:34:25;;;;;;;40.72;18.02;;;;;;;17.30;100.00;100246.41;5006261;28;20046;-79
2023/07/28 00:36:53;;;;;;;42.45;18.40;;;;;;;17.30;100.00;100244.63;4987292;28;20053;-79
2023/07/28 00:39:20;;;;;;;41.33;18.83;;;;;;;17.30;100.00;100241.09;5003711;28;20042;-79
2023/07/28 00:41:47;;;;;;;43.20;17.67;;;;;;;17.31;100.00;100232.16;4971673;28;20774;-78
2023/07/28 00:44:17;;;;;;;45.63;18.80;;;;;;;17.31;100.00;100241.00;5009802;28;20045;-79
2023/07/28 00:46:45;;;;;;;37.50;16.23;;;;;;;17.31;100.00;100248.13;4975501;28;20052;-79
2023/07/28 00:49:13;;;;;;;38.63;17.27;;;;;;;17.31;100.00;100248.13;4998589;28;20058;-78
2023/07/28 00:51:41;;;;;;;41.38;18.25;;;;;;;17.31;100.00;100238.34;4993439;28;20046;-78
2023/07/28 00:54:08;;;;;;;46.63;18.70;;;;;;;17.33;100.00;100246.28;4976662;28;20053;-79
2023/07/28 00:56:36;;;;;;;51.65;19.27;;;;;;;17.32;100.00;100248.09;4992736;28;20053;-78
2023/07/28 00:59:04;;;;;;;45.47;18.48;;;;;;;17.32;100.00;100249.91;4995345;28;20058;-79
2023/07/28 01:01:31;;;;;;;49.95;18.20;;;;;;;17.32;100.00;100241.91;4971408;28;20403;-80
2023/07/28 01:03:59;;;;;;;35.45;16.27;;;;;;;17.33;100.00;100255.16;5006019;28;20054;-79
2023/07/28 01:06:36;;;;;;;40.45;17.20;;;;;;;17.33;100.00;100254.28;5010572;28;20061;-78
2023/07/28 01:09:14;;;;;;;44.42;17.58;;;;;;;17.34;100.00;100253.38;4989367;28;20056;-79
2023/07/28 01:11:56;;;;;;;53.92;18.80;;;;;;;17.33;100.00;100252.50;5007566;28;20057;-79
2023/07/28 01:14:24;;;;;;;46.55;19.13;;;;;;;17.33;100.00;100246.28;5007447;28;20058;-79
2023/07/28 01:16:52;;;;;;;47.30;19.85;;;;;;;17.34;100.00;100248.03;4973655;28;20050;-79
2023/07/28 01:19:22;;;;;;;52.92;19.70;;;;;;;17.33;100.00;100247.19;4997382;28;20058;-78
2023/07/28 01:22:04;;;;;;;59.53;21.60;;;;;;;17.35;100.00;100247.09;4997873;28;20064;-79
2023/07/28 01:25:00;;;;;;;60.15;21.70;;;;;;;17.34;100.00;100246.25;4983708;28;20632;-80
2023/07/28 01:27:28;;;;;;;55.08;19.42;;;;;;;17.35;100.00;100252.44;5008013;28;20054;-79
2023/07/28 01:29:56;;;;;;;57.58;20.92;;;;;;;17.35;100.00;100247.09;5007818;28;20061;-79
2023/07/28 01:32:24;;;;;;;55.28;20.88;;;;;;;17.34;100.00;100254.22;5009122;28;20060;-78
2023/07/28 01:34:51;;;;;;;57.97;20.00;;;;;;;17.35;100.00;100249.75;4970548;28;20440;-79
2023/07/28 01:37:20;;;;;;;47.85;19.80;;;;;;;17.35;100.00;100241.78;4983001;28;20418;-80
2023/07/28 01:39:48;;;;;;;64.47;21.13;;;;;;;17.36;100.00;100250.66;4988334;28;20314;-79
2023/07/28 01:42:15;;;;;;;54.00;19.40;;;;;;;17.35;100.00;100247.09;5011671;28;20147;-78
2023/07/28 01:44:43;;;;;;;61.65;19.65;;;;;;;17.34;100.00;100250.72;4978036;28;20058;-79
2023/07/28 01:47:10;;;;;;;49.83;18.27;;;;;;;17.35;100.00;100244.44;5003410;28;20057;-78
2023/07/28 01:49:38;;;;;;;56.60;18.88;;;;;;;17.34;100.00;100240.91;4987009;28;20058;-79
2023/07/28 01:52:06;;;;;;;48.42;19.42;;;;;;;17.36;100.00;100246.19;5005502;28;20041;-79
2023/07/28 01:54:34;;;;;;;43.10;17.60;;;;;;;17.36;100.00;100248.00;4994879;28;20054;-78
2023/07/28 01:57:01;;;;;;;48.17;19.08;;;;;;;17.36;100.00;100246.19;4988674;28;20057;-79
2023/07/28 01:59:29;;;;;;;36.03;17.08;;;;;;;17.36;100.00;100243.53;5023450;28;20054;-79
2023/07/28 02:01:58;;;;;;;50.22;19.80;;;;;;;17.37;100.00;100252.38;4984542;28;20068;-79
2023/07/28 02:04:25;;;;;;;52.63;20.35;;;;;;;17.37;100.00;100249.72;4982842;28;20056;-80
2023/07/28 02:06:54;;;;;;;40.85;17.80;;;;;;;17.36;100.00;100254.19;4996175;28;20514;-79
2023/07/28 02:09:22;;;;;;;54.55;19.40;;;;;;;17.36;100.00;100243.53;4994355;28;20051;-80
2023/07/28 02:11:49;;;;;;;59.80;20.00;;;;;;;17.36;100.00;100242.69;4993896;28;20488;-80
2023/07/28 02:14:17;;;;;;;59.60;18.83;;;;;;;17.34;100.00;100243.59;4991491;28;20531;-79
2023/07/28 02:16:45;;;;;;;49.92;19.45;;;;;;;17.33;100.00;100248.94;5025630;28;20057;-79
2023/07/28 02:19:12;;;;;;;48.70;20.50;;;;;;;17.35;100.00;100263.09;5005304;28;20411;-79
2023/07/28 02:21:39;;;;;;;44.38;17.42;;;;;;;17.35;100.00;100265.75;4966538;28;20058;-79
2023/07/28 02:24:07;;;;;;;55.88;20.80;;;;;;;17.35;100.00;100263.09;4988826;28;20054;-79
2023/07/28 02:26:35;;;;;;;54.03;19.98;;;;;;;17.35;100.00;100265.75;4993574;28;20419;-79
2023/07/28 02:29:03;;;;;;;52.33;18.90;;;;;;;17.34;100.00;100270.22;5007941;28;20546;-79
2023/07/28 02:31:30;;;;;;;50.90;19.25;;;;;;;17.35;100.00;100268.41;4970171;28;20416;-80
2023/07/28 02:33:58;;;;;;;53.53;19.23;;;;;;;17.34;100.00;100269.34;5010912;28;20042;-79
2023/07/28 02:36:25;;;;;;;60.47;19.02;;;;;;;17.34;100.00;100272.88;4978310;28;20054;-79
2023/07/28 02:38:53;;;;;;;46.90;19.67;;;;;;;17.34;100.00;100272.88;5001052;28;20042;-81
2023/07/28 02:41:20;;;;;;;57.45;20.15;;;;;;;17.34;100.00;100270.22;4982385;28;20496;-79
2023/07/28 02:43:48;;;;;;;52.60;19.98;;;;;;;17.36;100.00;100272.81;4987761;28;20042;-79
2023/07/28 02:46:16;;;;;;;55.38;19.88;;;;;;;17.35;100.00;100281.72;5015250;28;20045;-79
2023/07/28 02:48:43;;;;;;;58.92;20.70;;;;;;;17.35;100.00;100265.75;4980103;28;20057;-79
2023/07/28 02:51:12;;;;;;;56.38;18.45;;;;;;;17.34;100.00;100275.53;4963971;28;20046;-79
2023/07/28 02:53:39;;;;;;;51.80;18.98;;;;;;;17.34;100.00;100275.53;4980199;28;20061;-78
2023/07/28 02:56:06;;;;;;;55.53;20.00;;;;;;;17.36;100.00;100275.50;5013423;28;20045;-78
2023/07/28 02:58:34;;;;;;;51.13;18.90;;;;;;;17.35;100.00;100276.41;4972136;28;20056;-80
2023/07/28 03:01:01;;;;;;;57.28;19.92;;;;;;;17.36;100.00;100277.28;4986038;28;20054;-79
2023/07/28 03:03:34;;;;;;;54.80;19.85;;;;;;;17.36;100.00;100271.97;5008195;28;20069;-80
2023/07/28 03:06:02;;;;;;;57.00;21.30;;;;;;;17.36;100.00;100275.50;5023700;28;20051;-79
2023/07/28 03:08:34;;;;;;;50.95;17.92;;;;;;;17.36;100.00;100275.50;4995192;28;20404;-79
2023/07/28 03:11:31;;;;;;;49.83;18.58;;;;;;;17.35;100.00;100276.41;4983982;28;20046;-79
2023/07/28 03:13:58;;;;;;;46.20;19.05;;;;;;;17.34;100.00;100264.03;4968071;28;20045;-80
2023/07/28 03:16:26;;;;;;;51.53;18.42;;;;;;;17.34;100.00;100277.34;5005228;28;20049;-79
2023/07/28 03:18:53;;;;;;;48.60;18.35;;;;;;;17.34;100.00;100280.88;4987936;28;20077;-79
2023/07/28 03:21:21;;;;;;;50.05;18.58;;;;;;;17.35;100.00;100287.06;4985591;28;20495;-79
2023/07/28 03:23:49;;;;;;;48.17;18.83;;;;;;;17.34;100.00;100280.00;4970600;28;20048;-80
2023/07/28 03:26:16;;;;;;;52.25;18.60;;;;;;;17.34;100.00;100286.19;4986755;28;20061;-78
2023/07/28 03:28:44;;;;;;;47.00;17.75;;;;;;;17.35;100.00;100292.38;4988166;28;20054;-79
2023/07/28 03:31:12;;;;;;;53.80;19.05;;;;;;;17.35;100.00;100287.06;4971565;28;20073;-79
2023/07/28 03:33:39;;;;;;;51.97;18.55;;;;;;;17.36;100.00;100290.59;4997586;28;20054;-79
2023/07/28 03:36:06;;;;;;;52.20;17.98;;;;;;;17.36;100.00;100293.28;4991826;28;20061;-79
2023/07/28 03:38:37;;;;;;;49.88;18.25;;;;;;;17.36;100.00;100291.47;4988454;28;20061;-80
2023/07/28 03:41:06;;;;;;;54.17;18.60;;;;;;;17.36;100.00;100290.59;4986545;28;20058;-79
2023/07/28 03:43:34;;;;;;;45.50;18.38;;;;;;;17.36;100.00;100288.81;4992057;28;20061;-79
2023/07/28 03:46:02;;;;;;;48.00;18.80;;;;;;;17.37;100.00;100295.00;4965967;28;20053;-79
2023/07/28 03:48:29;;;;;;;54.78;19.30;;;;;;;17.36;100.00;100288.81;4982387;28;20050;-80
2023/07/28 03:50:59;;;;;;;53.10;18.60;;;;;;;17.37;100.00;100298.53;4991235;28;20042;-79
2023/07/28 03:53:26;;;;;;;54.03;18.52;;;;;;;17.38;100.00;100294.09;4994398;28;20410;-79
2023/07/28 03:55:57;;;;;;;51.08;18.80;;;;;;;17.37;100.00;100293.19;4966290;28;20408;-79
2023/07/28 03:58:25;;;;;;;54.13;19.10;;;;;;;17.38;100.00;100297.63;5001386;28;20057;-79
2023/07/28 04:00:53;;;;;;;54.63;19.05;;;;;;;17.37;100.00;100297.66;4988740;28;20053;-80
2023/07/28 04:03:21;;;;;;;55.05;20.70;;;;;;;17.37;100.00;100303.84;4959316;28;20061;-80
2023/07/28 04:05:49;;;;;;;51.40;19.77;;;;;;;17.37;100.00;100300.31;4990638;28;20058;-79
2023/07/28 04:08:16;;;;;;;55.92;19.13;;;;;;;17.36;100.00;100304.78;4983939;28;20060;-79
2023/07/28 04:10:44;;;;;;;48.40;19.70;;;;;;;17.37;100.00;100303.84;4998827;28;20065;-80
2023/07/28 04:13:12;;;;;;;53.90;20.05;;;;;;;17.36;100.00;100304.78;4984751;28;20376;-80
2023/07/28 04:15:39;;;;;;;63.60;20.83;;;;;;;17.36;100.00;100301.25;5010270;28;20054;-79
2023/07/28 04:18:07;;;;;;;52.03;20.08;;;;;;;17.34;100.00;100307.50;4972686;28;20423;-78
2023/07/28 04:20:34;;;;;;;53.72;20.10;;;;;;;17.35;100.00;100303.03;4992362;28;20707;-78
2023/07/28 04:23:02;;;;;;;53.00;19.80;;;;;;;17.36;100.00;100310.09;5009238;28;20060;-79
2023/07/28 04:25:35;;;;;;;51.13;19.92;;;;;;;17.35;100.00;100308.34;4986275;28;20090;-79
2023/07/28 04:28:03;;;;;;;49.75;20.23;;;;;;;17.35;100.00;100311.00;4987059;28;20420;-79
2023/07/28 04:30:31;;;;;;;42.40;18.67;;;;;;;17.36;100.00;100312.78;5007203;28;20053;-79
2023/07/28 04:32:58;;;;;;;45.35;19.73;;;;;;;17.37;100.00;100319.81;4965156;28;20057;-80
2023/07/28 04:35:32;;;;;;;58.78;20.05;;;;;;;17.37;100.00;100316.28;5004278;28;20051;-79
2023/07/28 04:38:13;;;;;;;49.75;19.88;;;;;;;17.37;100.00;100322.50;5001656;28;20058;-79
2023/07/28 04:40:58;;;;;;;47.92;19.98;;;;;;;17.38;100.00;100328.72;5006851;28;20431;-80
2023/07/28 04:43:43;;;;;;;57.00;21.27;;;;;;;17.38;100.00;100326.91;4978822;28;20049;-80
2023/07/28 04:46:10;;;;;;;41.30;19.50;;;;;;;17.38;100.00;100329.56;4994261;28;20057;-80
2023/07/28 04:48:39;;;;;;;47.65;19.80;;;;;;;17.38;100.00;100332.22;4978679;28;20049;-80
2023/07/28 04:51:26;;;;;;;49.95;20.23;;;;;;;17.39;100.00;100336.66;4974891;28;20058;-80
2023/07/28 04:54:12;;;;;;;40.20;19.05;;;;;;;17.38;100.00;100339.38;4988565;28;20049;-79
2023/07/28 04:56:40;;;;;;;47.70;18.17;;;;;;;17.38;100.00;100342.88;4995986;28;20038;-79
2023/07/28 04:59:07;;;;;;;45.30;19.77;;;;;;;17.39;100.00;100349.97;4961412;28;20054;-80
2023/07/28 05:01:35;;;;;;;39.67;18.15;;;;;;;17.39;100.00;100354.41;5024206;28;20050;-79
2023/07/28 05:04:04;;;;;;;46.38;18.05;;;;;;;17.40;100.00;100348.16;4982708;28;20061;-79
2023/07/28 05:06:31;;;;;;;42.92;18.13;;;;;;;17.41;100.00;100349.91;4980049;28;20415;-78
2023/07/28 05:08:59;;;;;;;36.30;18.55;;;;;;;17.42;100.00;100347.19;5000339;28;20058;-79
2023/07/28 05:11:34;;;;;;;43.50;19.10;;;;;;;17.42;100.00;100349.84;5009495;28;20069;-79
2023/07/28 05:14:01;;;;;;;37.05;16.27;;;;;;;17.44;100.00;100341.81;4985098;28;20049;-79
2023/07/28 05:16:30;;;;;;;47.28;17.63;;;;;;;17.43;100.00;100340.94;4988286;28;20065;-79
2023/07/28 05:19:24;;;;;;;39.05;16.33;;;;;;;17.44;100.00;100341.81;4982636;28;20058;-81
2023/07/28 05:21:57;;;;;;;42.10;17.58;;;;;;;17.44;100.00;100340.00;5028933;28;20489;-79
2023/07/28 05:24:44;;;;;;;32.78;16.48;;;;;;;17.45;100.00;100348.91;4996668;28;20057;-78
2023/07/28 05:27:12;;;;;;;34.53;16.02;;;;;;;17.45;100.00;100339.09;5008893;28;20049;-78
2023/07/28 05:29:43;;;;;;;39.10;16.42;;;;;;;17.46;100.00;100339.97;4995638;28;20057;-79
2023/07/28 05:32:11;;;;;;;40.55;15.75;;;;;;;17.47;100.00;100345.25;4987344;28;20069;-79
2023/07/28 05:34:58;;;;;;;33.00;16.27;;;;;;;17.48;100.00;100354.97;4990795;28;20053;-78
2023/07/28 05:37:25;;;;;;;37.83;17.17;;;;;;;17.48;100.00;100344.31;4963913;28;20081;-79
2023/07/28 05:39:52;;;;;;;40.05;16.02;;;;;;;17.50;100.00;100339.84;4995307;28;20046;-79
2023/07/28 05:42:24;;;;;;;33.55;15.48;;;;;;;17.52;100.00;100347.75;4994063;28;20058;-80
2023/07/28 05:44:54;;;;;;;33.13;15.27;;;;;;;17.54;100.00;100337.91;4985865;28;20049;-79
2023/07/28 05:47:22;;;;;;;30.52;14.63;;;;;;;17.57;100.00;100339.63;4999242;28;20062;-79
2023/07/28 05:49:50;;;;;;;31.70;15.38;;;;;;;17.58;100.00;100344.91;5001003;28;20060;-79
2023/07/28 05:52:18;;;;;;;37.22;16.10;;;;;;;17.60;100.00;100356.38;4988003;28;20054;-79
2023/07/28 05:54:45;;;;;;;28.30;13.48;;;;;;;17.62;100.00;100353.66;4972746;28;20058;-78
2023/07/28 05:57:12;;;;;;;36.58;15.63;;;;;;;17.61;100.00;100354.56;5002257;28;20061;-79
2023/07/28 05:59:40;;;;;;;36.80;16.45;;;;;;;17.62;100.00;100354.53;5015412;28;20053;-78
2023/07/28 06:02:08;;;;;;;34.00;15.82;;;;;;;17.63;100.00;100361.56;4967429;28;20050;-79
2023/07/28 06:04:49;;;;;;;27.23;15.30;;;;;;;17.62;100.00;100364.31;4996427;28;20499;-78
2023/07/28 06:07:17;;;;;;;27.55;15.15;;;;;;;17.63;100.00;100356.25;4981849;28;20044;-78
2023/07/28 06:09:44;;;;;;;32.50;14.68;;;;;;;17.62;100.00;100366.97;5004195;28;20053;-79
2023/07/28 06:12:13;;;;;;;20.45;13.40;;;;;;;17.61;100.00;100379.41;4973449;28;20046;-78
2023/07/28 06:14:40;;;;;;;26.85;13.07;;;;;;;17.61;100.00;100379.41;4968609;28;20042;-79
2023/07/28 06:17:10;;;;;;;21.30;13.75;;;;;;;17.62;100.00;100377.63;4955736;28;20045;-79
2023/07/28 06:19:37;;;;;;;25.52;13.20;;;;;;;17.62;100.00;100377.63;4986405;28;20060;-79
2023/07/28 06:22:05;;;;;;;24.13;11.95;;;;;;;17.64;100.00;100374.00;4978962;28;20089;-79
2023/07/28 06:24:36;;;;;;;16.20;11.63;;;;;;;17.62;100.00;100381.16;4982023;28;20062;-79
2023/07/28 06:27:07;;;;;;;15.18;11.00;;;;;;;17.65;100.00;100385.50;4974332;28;20058;-79
2023/07/28 06:29:37;;;;;;;17.70;10.68;;;;;;;17.65;100.00;100385.50;4990856;28;20049;-78
2023/07/28 06:32:05;;;;;;;14.50;10.90;;;;;;;17.64;100.00;100389.97;4967207;28;20057;-79
2023/07/28 06:34:33;;;;;;;18.40;11.02;;;;;;;17.64;100.00;100383.78;4984790;28;20077;-77
2023/07/28 06:37:01;;;;;;;11.63;10.10;;;;;;;17.66;100.00;100390.78;4959694;28;20061;-78
2023/07/28 06:39:30;;;;;;;16.83;11.20;;;;;;;17.69;100.00;100400.47;4985451;28;20050;-78
2023/07/28 06:41:58;;;;;;;17.17;11.45;;;;;;;17.70;100.00;100400.41;4967075;28;20054;-78
2023/07/28 06:44:29;;;;;;;12.88;11.05;;;;;;;17.73;100.00;100399.44;4989131;28;20534;-78
2023/07/28 06:46:56;;;;;;;17.08;11.45;;;;;;;17.76;100.00;100414.47;4974464;28;20050;-77
2023/07/28 06:49:24;;;;;;;14.70;11.45;;;;;;;17.77;100.00;100411.75;5007872;28;20045;-80
2023/07/28 06:51:52;;;;;;;12.10;10.82;;;;;;;17.78;100.00;100415.28;4998660;28;20408;-78
2023/07/28 06:54:21;;;;;;;17.67;10.65;;;;;;;17.78;100.00;100420.63;4982735;28;20038;-78
2023/07/28 06:56:49;;;;;;;17.17;10.60;;;;;;;17.79;100.00;100425.00;4997781;28;20053;-77
2023/07/28 06:59:16;;;;;;;13.85;10.88;;;;;;;17.75;100.00;100424.25;4983454;28;20058;-78
2023/07/28 07:01:49;;;;;;;18.08;12.10;;;;;;;17.74;100.00;100434.03;4995131;28;20053;-77
2023/07/28 07:04:17;;;;;;;13.55;10.40;;;;;;;17.77;100.00;100435.75;4966651;28;20050;-78
2023/07/28 07:06:45;;;;;;;13.57;11.65;;;;;;;17.81;100.00;100437.38;5001133;28;20061;-78
2023/07/28 07:09:14;;;;;;;17.50;11.40;;;;;;;17.81;100.00;100437.38;4974376;28;20053;-77
2023/07/28 07:11:42;;;;;;;14.15;11.10;;;;;;;17.83;100.00;100445.34;4986854;28;20049;-77
2023/07/28 07:14:09;;;;;;;15.77;11.68;;;;;;;17.86;100.00;100451.47;4956051;28;20054;-79
2023/07/28 07:16:37;;;;;;;16.95;10.55;;;;;;;17.90;100.00;100447.78;5001226;28;20050;-81
2023/07/28 07:19:04;;;;;;;17.35;11.80;;;;;;;17.97;100.00;100450.22;4964705;28;20526;-77
2023/07/28 07:21:32;;;;;;;14.02;11.55;;;;;;;18.02;100.00;100456.28;4981452;28;20068;-80
2023/07/28 07:24:02;;;;;;;13.40;11.65;;;;;;;18.09;100.00;100465.78;4962412;28;20505;-78
2023/07/28 07:26:31;;;;;;;12.73;10.68;;;;;;;18.15;100.00;100459.38;5004593;28;20831;-78
2023/07/28 07:28:59;;;;;;;12.82;11.57;;;;;;;18.22;100.00;100459.13;4991783;28;20047;-78
2023/07/28 07:31:26;;;;;;;13.38;11.25;;;;;;;18.29;100.00;100460.63;4988661;28;20065;-78
2023/07/28 07:33:53;;;;;;;11.98;10.63;;;;;;;18.38;100.00;100466.59;4961059;28;21956;-79
2023/07/28 07:36:21;;;;;;;12.90;10.88;;;;;;;18.43;100.00;100467.28;4997797;28;20475;-77
2023/07/28 07:38:48;;;;;;;13.05;10.57;;;;;;;18.50;100.00;100471.47;4949973;28;20060;-78
2023/07/28 07:41:19;;;;;;;11.30;10.13;;;;;;;18.57;100.00;100478.34;5001466;28;20029;-78
2023/07/28 07:43:53;;;;;;;13.52;9.55;;;;;;;18.67;100.00;100487.75;4969060;28;20060;-78
2023/07/28 07:46:21;;;;;;;13.23;9.43;;;;;;;18.76;100.00;100488.38;4997431;28;20065;-78
2023/07/28 07:48:50;;;;;;;9.88;8.07;;;;;;;18.85;100.00;100493.41;4947696;28;20057;-80
2023/07/28 07:51:18;;;;;;;9.50;8.60;;;;;;;18.92;100.00;100494.91;4983619;28;20049;-80
2023/07/28 07:53:46;;;;;;;9.70;8.70;;;;;;;18.95;100.00;100494.78;4984217;28;20053;-80
2023/07/28 07:56:14;;;;;;;8.52;7.60;;;;;;;18.96;100.00;100498.31;4969222;28;20085;-79
2023/07/28 07:58:42;;;;;;;7.38;6.68;;;;;;;18.99;100.00;100500.91;4989730;28;20049;-79
2023/07/28 08:01:11;;;;;;;;;;;;;;;18.96;100.00;100509.91;5012334;28;20600;-78
2023/07/28 08:03:39;;;;;;;5.97;5.32;;;;;;;19.00;100.00;100514.19;4992668;28;19929;-81
2023/07/28 08:06:08;;;;;;;4.97;4.57;;;;;;;19.05;100.00;100520.25;4989883;28;20052;-79
2023/07/28 08:08:35;;;;;;;6.28;5.65;;;;;;;19.09;100.00;100516.53;5015874;28;20076;-79
2023/07/28 08:11:03;;;;;;;5.95;5.25;;;;;;;19.11;100.00;100523.59;4954496;28;20054;-78
2023/07/28 08:13:31;;;;;;;7.05;6.35;;;;;;;19.14;100.00;100518.16;4965268;28;20050;-77
2023/07/28 08:15:59;;;;;;;6.80;5.80;;;;;;;19.16;100.00;100525.16;4993217;28;20049;-77
2023/07/28 08:18:26;;;;;;;6.20;5.70;;;;;;;19.24;100.00;100524.88;4996905;28;20045;-78
2023/07/28 08:20:54;;;;;;;5.90;5.32;;;;;;;19.32;100.00;100525.47;4947793;28;20053;-79
2023/07/28 08:23:21;;;;;;;5.68;5.03;;;;;;;19.37;100.00;100530.63;4993915;28;20061;-78
2023/07/28 08:25:49;;;;;;;5.38;4.88;;;;;;;19.33;100.00;100535.22;4957659;28;20077;-79
2023/07/28 08:28:16;;;;;;;7.68;4.55;;;;;;;19.29;100.00;100541.59;4986601;28;20050;-78
2023/07/28 08:30:44;;;;;;;5.68;5.05;;;;;;;19.20;100.00;100534.78;4965715;28;20048;-80
2023/07/28 08:33:14;;;;;;;5.10;4.70;;;;;;;19.18;100.00;100538.47;4986889;28;20069;-79
2023/07/28 08:35:41;;;;;;;5.55;5.07;;;;;;;19.15;100.00;100549.25;4958866;28;20514;-79
2023/07/28 08:38:12;;;;;;;7.00;4.72;;;;;;;19.16;100.00;100556.34;5016766;28;20054;-79
2023/07/28 08:40:39;;;;;;;5.68;5.18;;;;;;;19.15;100.00;100551.91;4980307;28;20058;-80
2023/07/28 08:43:07;;;;;;;6.10;5.30;;;;;;;19.17;100.00;100550.97;4993826;28;20042;-77
2023/07/28 08:45:37;;;;;;;6.53;5.40;;;;;;;19.24;100.00;100551.59;4986509;28;20065;-80
2023/07/28 08:48:05;;;;;;;5.93;5.05;;;;;;;19.34;100.00;100550.31;4997388;28;20503;-80
2023/07/28 08:50:33;;;;;;;6.47;5.57;;;;;;;19.47;100.00;100556.06;4998402;28;20061;-80
2023/07/28 08:53:00;;;;;;;5.43;4.68;;;;;;;19.67;100.00;100558.81;4987053;28;20061;-81
2023/07/28 08:55:27;;;;;;;5.22;4.35;;;;;;;19.88;100.00;100560.75;4996638;28;20046;-80
2023/07/28 08:57:55;;;;;;;4.57;4.18;;;;;;;20.04;100.00;100568.09;4977492;28;20507;-80
2023/07/28 09:00:24;;;;;;;4.70;4.30;;;;;;;20.17;100.00;100559.56;4991443;28;20050;-80
2023/07/28 09:02:53;;;;;;;3.95;3.72;;;;;;;20.37;100.00;100566.75;5007063;28;20061;-81
2023/07/28 09:05:21;;;;;;;4.25;3.88;;;;;;;20.53;100.00;100559.84;4984864;28;20050;-79
2023/07/28 09:07:49;;;;;;;3.47;3.20;;;;;;;20.73;100.00;100571.50;4969934;28;20070;-82
2023/07/28 09:10:17;;;;;;;3.08;2.85;;;;;;;20.79;100.00;100587.31;5008698;28;20061;-80
2023/07/28 09:12:53;;;;;;;3.53;3.03;;;;;;;20.82;100.00;100574.66;4965501;28;20502;-82
2023/07/28 09:15:21;;;;;;;7.13;3.63;;;;;;;20.81;100.00;100577.41;5006782;28;20057;-80
2023/07/28 09:17:48;;;;;;;3.50;3.20;;;;;;;20.75;100.00;100577.66;5002241;28;20046;-80
2023/07/28 09:20:16;;;;;;;3.72;3.50;;;;;;;20.64;100.00;100579.03;4996905;28;20704;-82
2023/07/28 09:22:44;;;;;;;5.03;4.55;;;;;;;20.53;100.00;100575.00;4984701;28;20049;-81
2023/07/28 09:25:16;;;;;;;5.03;4.30;;;;;;;20.59;100.00;100577.44;5015696;28;20512;-79
2023/07/28 09:27:51;;;;;;;3.90;3.60;;;;;;;20.78;100.00;100575.72;4981275;28;20065;-79
2023/07/28 09:30:20;;;;;;;5.75;3.63;;;;;;;20.92;100.00;100576.94;4991812;28;20055;-81
2023/07/28 09:32:49;;;;;;;3.53;3.05;;;;;;;20.95;100.00;100577.66;4976729;28;20045;-80
2023/07/28 09:35:17;;;;;;;3.90;3.60;;;;;;;20.91;100.00;100575.22;5002751;28;20499;-80
2023/07/28 09:37:48;;;;;;;4.80;4.30;;;;;;;20.88;100.00;100581.56;4961039;28;20046;-81
2023/07/28 09:40:23;;;;;;;5.03;4.63;;;;;;;20.90;100.00;100574.31;5015524;28;20050;-81
2023/07/28 09:42:50;;;;;;;4.45;4.05;;;;;;;20.88;100.00;100576.19;4982814;28;20050;-80
2023/07/28 09:45:23;;;;;;;4.53;4.13;;;;;;;20.77;100.00;100589.19;5003161;28;20049;-80
2023/07/28 09:47:57;;;;;;;4.43;4.13;;;;;;;20.69;100.00;100594.88;4977444;28;20061;-80
2023/07/28 09:50:28;;;;;;;4.90;4.32;;;;;;;20.63;100.00;100600.50;5008086;28;20050;-80
2023/07/28 09:53:01;;;;;;;5.38;4.35;;;;;;;20.53;100.00;100586.59;4974490;28;20057;-80
2023/07/28 09:55:29;;;;;;;6.65;4.63;;;;;;;20.40;100.00;100602.28;5008483;28;20046;-79
2023/07/28 09:58:01;;;;;;;5.32;4.93;;;;;;;20.30;100.00;100605.41;4980899;28;20072;-80
2023/07/28 10:00:29;;;;;;;5.60;5.10;;;;;;;20.22;100.00;100603.91;5002229;28;20047;-80
2023/07/28 10:02:59;;;;;;;6.18;5.57;;;;;;;20.12;100.00;100599.88;4997958;28;20439;-79
2023/07/28 10:05:27;;;;;;;5.80;5.05;;;;;;;20.13;100.00;100612.34;4993431;28;20058;-79
2023/07/28 10:07:56;;;;;;;5.25;4.85;;;;;;;20.32;100.00;100608.88;4998034;28;20046;-80
2023/07/28 10:10:26;;;;;;;5.78;5.20;;;;;;;20.44;100.00;100603.91;4987245;28;20479;-80
2023/07/28 10:12:57;;;;;;;4.63;4.30;;;;;;;20.49;100.00;100598.38;4983080;28;20171;-80
2023/07/28 10:15:30;;;;;;;5.07;4.32;;;;;;;20.56;100.00;100607.88;5011343;28;20820;-80
2023/07/28 10:17:59;;;;;;;4.45;4.13;;;;;;;20.56;100.00;100601.66;5001656;28;20794;-82
2023/07/28 10:20:38;;;;;;;4.15;3.72;;;;;;;20.59;100.00;100607.75;4963237;28;20073;-80
2023/07/28 10:23:19;;;;;;;3.72;3.40;;;;;;;20.63;100.00;100609.38;5004953;28;20053;-80
2023/07/28 10:25:56;;;;;;;4.40;3.90;;;;;;;20.70;100.00;100611.78;4967699;28;20045;-80
2023/07/28 10:28:31;;;;;;;2.97;2.80;;;;;;;20.79;100.00;100609.63;5006942;28;20062;-79
2023/07/28 10:31:00;;;;;;;3.40;3.20;;;;;;;20.91;100.00;100612.72;4983816;28;20065;-80
2023/07/28 10:33:37;;;;;;;3.40;3.10;;;;;;;21.05;100.00;100610.28;5001627;28;20523;-80
2023/07/28 10:36:17;;;;;;;4.25;3.45;;;;;;;21.15;100.00;100611.63;4957355;28;22837;-79
2023/07/28 10:38:45;;;;;;;4.28;3.45;;;;;;;21.29;100.00;100612.81;4981668;28;20569;-79
2023/07/28 10:41:14;;;;;;;3.70;3.40;;;;;;;21.40;100.00;100619.41;4958818;28;20041;-80
2023/07/28 10:43:42;;;;;;;2.80;2.60;;;;;;;21.48;100.00;100613.75;4974980;28;20046;-80
2023/07/28 10:46:14;;;;;;;3.70;3.40;;;;;;;21.66;100.00;100608.47;4995680;28;20054;-80
2023/07/28 10:48:47;;;;;;;3.53;3.22;;;;;;;21.82;100.00;100609.47;5004270;28;20078;-80
2023/07/28 10:51:32;;;;;;;4.30;3.90;;;;;;;21.93;100.00;100607.16;4979762;28;20416;-79
2023/07/28 10:54:04;;;;;;;3.80;3.53;;;;;;;22.02;100.00;100608.50;4980279;28;20643;-80
2023/07/28 10:56:31;;;;;;;3.78;3.40;;;;;;;22.08;100.00;100608.25;4969024;28;20061;-80
2023/07/28 10:59:01;;;;;;;3.97;3.67;;;;;;;22.07;100.00;100617.22;5000540;28;21366;-79
2023/07/28 11:01:37;;;;;;;4.78;2.63;;;;;;;22.15;100.00;100612.34;4980091;28;20057;-80
2023/07/28 11:04:15;;;;;;;4.47;3.15;;;;;;;22.26;100.00;100611.00;4989372;28;20784;-81
2023/07/28 11:06:44;;;;;;;4.95;3.15;;;;;;;22.28;100.00;100619.84;4989511;28;20418;-79
2023/07/28 11:09:14;;;;;;;3.42;3.22;;;;;;;22.33;100.00;100625.84;5006230;28;20045;-79
2023/07/28 11:11:42;;;;;;;3.90;3.60;;;;;;;22.31;100.00;100627.75;4990293;28;20781;-79
2023/07/28 11:14:15;;;;;;;3.10;2.90;;;;;;;22.32;100.00;100621.41;5018838;28;20049;-79
2023/07/28 11:16:50;;;;;;;2.60;2.40;;;;;;;22.37;100.00;100619.38;4966535;28;20061;-79
2023/07/28 11:19:24;;;;;;;2.58;2.38;;;;;;;22.32;100.00;100624.97;5000597;28;20053;-79